sensor_id;sensor_type;location;lat;lon;timestamp;pressure;altitude;pressure_sealevel;temperature;humidity
40918;BME280;26644;50.248;19.032;2023-02-10T00:02:23;99782.72;;;-2.45;57.61
40918;BME280;26644;50.248;19.032;2023-02-10T00:05:29;99764.34;;;-2.49;57.56
40918;BME280;26644;50.248;19.032;2023-02-10T00:08:35;99773.97;;;-2.38;57.50
40918;BME280;26644;50.248;19.032;2023-02-10T00:11:43;99760.84;;;-2.42;57.44
40918;BME280;26644;50.248;19.032;2023-02-10T00:15:02;99746.94;;;-2.29;57.11
40918;BME280;26644;50.248;19.032;2023-02-10T00:18:07;99747.13;;;-2.22;57.17
40918;BME280;26644;50.248;19.032;2023-02-10T00:21:16;99746.63;;;-2.17;56.93
40918;BME280;26644;50.248;19.032;2023-02-10T00:24:21;99727.97;;;-2.11;56.81
40918;BME280;26644;50.248;19.032;2023-02-10T00:27:30;99728.31;;;-2.14;56.68
40918;BME280;26644;50.248;19.032;2023-02-10T00:30:37;99717.72;;;-2.15;56.87
40918;BME280;26644;50.248;19.032;2023-02-10T00:33:43;99728.97;;;-2.12;56.92
40918;BME280;26644;50.248;19.032;2023-02-10T00:36:49;99729.66;;;-2.01;56.67
40918;BME280;26644;50.248;19.032;2023-02-10T00:39:55;99730.69;;;-1.94;56.44
40918;BME280;26644;50.248;19.032;2023-02-10T00:43:04;99746.16;;;-1.88;56.22
40918;BME280;26644;50.248;19.032;2023-02-10T00:46:11;99750.22;;;-1.84;56.23
40918;BME280;26644;50.248;19.032;2023-02-10T00:49:16;99731.53;;;-1.94;56.09
40918;BME280;26644;50.248;19.032;2023-02-10T00:52:23;99755.28;;;-1.81;56.19
40918;BME280;26644;50.248;19.032;2023-02-10T00:55:28;99751.59;;;-1.80;56.37
40918;BME280;26644;50.248;19.032;2023-02-10T00:58:37;99756.63;;;-1.77;56.28
40918;BME280;26644;50.248;19.032;2023-02-10T01:01:43;99753.94;;;-1.77;56.28
40918;BME280;26644;50.248;19.032;2023-02-10T01:04:49;99762.19;;;-1.78;56.00
40918;BME280;26644;50.248;19.032;2023-02-10T01:07:54;99762.84;;;-1.76;56.18
40918;BME280;26644;50.248;19.032;2023-02-10T01:11:03;99737.75;;;-1.93;56.29
40918;BME280;26644;50.248;19.032;2023-02-10T01:14:12;99759.97;;;-1.83;56.30
40918;BME280;26644;50.248;19.032;2023-02-10T01:17:18;99752.91;;;-1.84;56.39
40918;BME280;26644;50.248;19.032;2023-02-10T01:20:24;99733.69;;;-1.97;56.87
40918;BME280;26644;50.248;19.032;2023-02-10T01:23:32;99744.00;;;-1.93;56.67
40918;BME280;26644;50.248;19.032;2023-02-10T01:26:37;99733.41;;;-1.94;56.55
40918;BME280;26644;50.248;19.032;2023-02-10T01:29:45;99735.41;;;-1.96;56.58
40918;BME280;26644;50.248;19.032;2023-02-10T01:32:52;99746.50;;;-1.99;57.07
40918;BME280;26644;50.248;19.032;2023-02-10T01:36:02;99735.03;;;-2.01;56.96
40918;BME280;26644;50.248;19.032;2023-02-10T01:39:09;99722.59;;;-2.02;57.19
40918;BME280;26644;50.248;19.032;2023-02-10T01:42:16;99716.88;;;-2.08;57.26
40918;BME280;26644;50.248;19.032;2023-02-10T01:45:27;99714.84;;;-2.14;57.60
40918;BME280;26644;50.248;19.032;2023-02-10T01:48:36;99719.34;;;-2.22;57.77
40918;BME280;26644;50.248;19.032;2023-02-10T01:51:45;99731.00;;;-2.22;57.94
40918;BME280;26644;50.248;19.032;2023-02-10T01:54:59;99723.38;;;-2.27;57.91
40918;BME280;26644;50.248;19.032;2023-02-10T01:58:11;99734.84;;;-2.25;58.29
40918;BME280;26644;50.248;19.032;2023-02-10T02:01:23;99727.78;;;-2.26;58.08
40918;BME280;26644;50.248;19.032;2023-02-10T02:04:28;99736.84;;;-2.18;58.13
40918;BME280;26644;50.248;19.032;2023-02-10T02:07:37;99720.56;;;-2.17;57.77
40918;BME280;26644;50.248;19.032;2023-02-10T02:11:05;99724.44;;;-2.19;57.95
40918;BME280;26644;50.248;19.032;2023-02-10T02:14:30;99711.28;;;-2.22;58.09
40918;BME280;26644;50.248;19.032;2023-02-10T02:17:50;99709.09;;;-2.27;57.99
40918;BME280;26644;50.248;19.032;2023-02-10T02:25:28;99724.25;;;-2.26;58.07
40918;BME280;26644;50.248;19.032;2023-02-10T02:32:39;99700.88;;;-2.26;57.81
40918;BME280;26644;50.248;19.032;2023-02-10T02:35:56;99696.47;;;-2.27;58.02
40918;BME280;26644;50.248;19.032;2023-02-10T02:39:06;99683.19;;;-2.36;58.16
40918;BME280;26644;50.248;19.032;2023-02-10T02:42:19;99703.84;;;-2.37;58.21
40918;BME280;26644;50.248;19.032;2023-02-10T02:45:32;99694.78;;;-2.44;58.34
40918;BME280;26644;50.248;19.032;2023-02-10T02:48:57;99708.75;;;-2.41;58.27
40918;BME280;26644;50.248;19.032;2023-02-10T02:52:12;99701.84;;;-2.43;58.18
40918;BME280;26644;50.248;19.032;2023-02-10T02:55:35;99688.19;;;-2.50;58.36
40918;BME280;26644;50.248;19.032;2023-02-10T02:58:54;99698.78;;;-2.48;57.92
40918;BME280;26644;50.248;19.032;2023-02-10T03:02:10;99697.94;;;-2.49;58.03
40918;BME280;26644;50.248;19.032;2023-02-10T03:05:23;99698.09;;;-2.50;57.86
40918;BME280;26644;50.248;19.032;2023-02-10T03:08:38;99693.75;;;-2.51;57.96
40918;BME280;26644;50.248;19.032;2023-02-10T03:11:45;99697.28;;;-2.51;57.74
40918;BME280;26644;50.248;19.032;2023-02-10T03:14:51;99690.72;;;-2.56;57.89
40918;BME280;26644;50.248;19.032;2023-02-10T03:17:56;99697.72;;;-2.64;58.11
40918;BME280;26644;50.248;19.032;2023-02-10T03:21:05;99701.59;;;-2.66;58.44
40918;BME280;26644;50.248;19.032;2023-02-10T03:24:10;99705.16;;;-2.58;58.03
40918;BME280;26644;50.248;19.032;2023-02-10T03:27:16;99690.00;;;-2.67;57.99
40918;BME280;26644;50.248;19.032;2023-02-10T03:30:21;99706.16;;;-2.59;57.66
40918;BME280;26644;50.248;19.032;2023-02-10T03:33:27;99697.25;;;-2.59;57.78
40918;BME280;26644;50.248;19.032;2023-02-10T03:36:34;99702.81;;;-2.52;57.57
40918;BME280;26644;50.248;19.032;2023-02-10T03:39:40;99687.84;;;-2.55;57.36
40918;BME280;26644;50.248;19.032;2023-02-10T03:42:45;99697.44;;;-2.52;57.16
40918;BME280;26644;50.248;19.032;2023-02-10T03:45:51;99690.38;;;-2.53;56.89
40918;BME280;26644;50.248;19.032;2023-02-10T03:48:56;99704.16;;;-2.48;56.59
40918;BME280;26644;50.248;19.032;2023-02-10T03:52:05;99695.09;;;-2.47;56.60
40918;BME280;26644;50.248;19.032;2023-02-10T03:55:09;99709.75;;;-2.42;56.47
40918;BME280;26644;50.248;19.032;2023-02-10T03:58:20;99694.91;;;-2.54;56.47
40918;BME280;26644;50.248;19.032;2023-02-10T04:01:25;99705.53;;;-2.44;56.07
40918;BME280;26644;50.248;19.032;2023-02-10T04:04:31;99704.53;;;-2.43;56.04
40918;BME280;26644;50.248;19.032;2023-02-10T04:07:39;99706.69;;;-2.47;55.85
40918;BME280;26644;50.248;19.032;2023-02-10T04:10:44;99703.19;;;-2.47;55.70
40918;BME280;26644;50.248;19.032;2023-02-10T04:13:49;99717.81;;;-2.42;55.54
40918;BME280;26644;50.248;19.032;2023-02-10T04:16:55;99713.78;;;-2.37;55.48
40918;BME280;26644;50.248;19.032;2023-02-10T04:20:00;99693.25;;;-2.47;55.33
40918;BME280;26644;50.248;19.032;2023-02-10T04:23:08;99692.06;;;-2.44;55.35
40918;BME280;26644;50.248;19.032;2023-02-10T04:26:13;99693.25;;;-2.38;55.23
40918;BME280;26644;50.248;19.032;2023-02-10T04:29:19;99686.00;;;-2.46;55.09
40918;BME280;26644;50.248;19.032;2023-02-10T04:32:25;99704.22;;;-2.32;54.76
40918;BME280;26644;50.248;19.032;2023-02-10T04:35:31;99709.59;;;-2.32;54.91
40918;BME280;26644;50.248;19.032;2023-02-10T04:38:39;99706.59;;;-2.29;54.88
40918;BME280;26644;50.248;19.032;2023-02-10T04:41:45;99698.63;;;-2.38;54.74
40918;BME280;26644;50.248;19.032;2023-02-10T04:44:50;99711.44;;;-2.32;54.58
40918;BME280;26644;50.248;19.032;2023-02-10T04:47:55;99719.50;;;-2.32;54.42
40918;BME280;26644;50.248;19.032;2023-02-10T04:51:06;99730.28;;;-2.32;54.54
40918;BME280;26644;50.248;19.032;2023-02-10T04:54:15;99721.56;;;-2.26;54.46
40918;BME280;26644;50.248;19.032;2023-02-10T04:57:20;99728.78;;;-2.27;54.16
40918;BME280;26644;50.248;19.032;2023-02-10T05:00:26;99732.63;;;-2.29;54.49
40918;BME280;26644;50.248;19.032;2023-02-10T05:03:32;99722.38;;;-2.34;54.31
40918;BME280;26644;50.248;19.032;2023-02-10T05:06:38;99730.91;;;-2.38;54.51
40918;BME280;26644;50.248;19.032;2023-02-10T05:09:45;99706.34;;;-2.52;54.57
40918;BME280;26644;50.248;19.032;2023-02-10T05:12:51;99719.66;;;-2.42;54.57
40918;BME280;26644;50.248;19.032;2023-02-10T05:15:56;99727.88;;;-2.44;54.66
40918;BME280;26644;50.248;19.032;2023-02-10T05:19:04;99738.13;;;-2.47;54.58
40918;BME280;26644;50.248;19.032;2023-02-10T05:22:10;99727.66;;;-2.59;54.69
40918;BME280;26644;50.248;19.032;2023-02-10T05:25:19;99733.94;;;-2.50;54.78
40918;BME280;26644;50.248;19.032;2023-02-10T05:28:24;99735.28;;;-2.46;54.56
40918;BME280;26644;50.248;19.032;2023-02-10T05:31:30;99725.34;;;-2.53;54.78
40918;BME280;26644;50.248;19.032;2023-02-10T05:34:35;99738.41;;;-2.59;54.74
40918;BME280;26644;50.248;19.032;2023-02-10T05:37:40;99750.00;;;-2.58;54.75
40918;BME280;26644;50.248;19.032;2023-02-10T05:40:48;99768.03;;;-2.50;54.71
40918;BME280;26644;50.248;19.032;2023-02-10T05:43:54;99777.47;;;-2.46;54.66
40918;BME280;26644;50.248;19.032;2023-02-10T05:46:59;99770.72;;;-2.50;54.64
40918;BME280;26644;50.248;19.032;2023-02-10T05:50:05;99778.50;;;-2.47;54.93
40918;BME280;26644;50.248;19.032;2023-02-10T05:53:11;99775.81;;;-2.47;54.92
40918;BME280;26644;50.248;19.032;2023-02-10T05:56:19;99768.91;;;-2.50;55.04
40918;BME280;26644;50.248;19.032;2023-02-10T05:59:24;99758.06;;;-2.58;54.98
40918;BME280;26644;50.248;19.032;2023-02-10T06:02:30;99759.78;;;-2.57;55.24
40918;BME280;26644;50.248;19.032;2023-02-10T06:05:35;99787.31;;;-2.63;55.52
40918;BME280;26644;50.248;19.032;2023-02-10T06:08:41;99775.41;;;-2.61;55.58
40918;BME280;26644;50.248;19.032;2023-02-10T06:11:49;99780.41;;;-2.66;55.90
40918;BME280;26644;50.248;19.032;2023-02-10T06:14:55;99784.94;;;-2.66;55.96
40918;BME280;26644;50.248;19.032;2023-02-10T06:18:00;99779.25;;;-2.63;55.92
40918;BME280;26644;50.248;19.032;2023-02-10T06:21:06;99782.25;;;-2.66;55.89
40918;BME280;26644;50.248;19.032;2023-02-10T06:24:11;99787.47;;;-2.65;56.01
40918;BME280;26644;50.248;19.032;2023-02-10T06:27:19;99791.31;;;-2.67;55.95
40918;BME280;26644;50.248;19.032;2023-02-10T06:30:24;99780.34;;;-2.74;56.19
40918;BME280;26644;50.248;19.032;2023-02-10T06:33:31;99781.22;;;-2.73;56.11
40918;BME280;26644;50.248;19.032;2023-02-10T06:36:36;99800.91;;;-2.65;56.21
40918;BME280;26644;50.248;19.032;2023-02-10T06:39:42;99791.69;;;-2.62;56.23
40918;BME280;26644;50.248;19.032;2023-02-10T06:42:50;99807.16;;;-2.64;55.98
40918;BME280;26644;50.248;19.032;2023-02-10T06:45:56;99796.91;;;-2.61;56.03
40918;BME280;26644;50.248;19.032;2023-02-10T06:49:01;99800.81;;;-2.55;56.08
40918;BME280;26644;50.248;19.032;2023-02-10T06:52:06;99810.06;;;-2.49;55.98
40918;BME280;26644;50.248;19.032;2023-02-10T06:55:11;99804.31;;;-2.54;55.96
40918;BME280;26644;50.248;19.032;2023-02-10T06:58:20;99810.59;;;-2.46;55.70
40918;BME280;26644;50.248;19.032;2023-02-10T07:01:25;99821.34;;;-2.46;55.80
40918;BME280;26644;50.248;19.032;2023-02-10T07:04:32;99807.03;;;-2.46;55.88
40918;BME280;26644;50.248;19.032;2023-02-10T07:07:38;99805.06;;;-2.44;55.91
40918;BME280;26644;50.248;19.032;2023-02-10T07:10:43;99803.91;;;-2.33;55.47
40918;BME280;26644;50.248;19.032;2023-02-10T07:13:51;99803.75;;;-2.32;55.41
40918;BME280;26644;50.248;19.032;2023-02-10T07:16:57;99810.69;;;-2.21;55.26
40918;BME280;26644;50.248;19.032;2023-02-10T07:20:02;99811.72;;;-2.14;55.37
40918;BME280;26644;50.248;19.032;2023-02-10T07:23:08;99813.09;;;-2.10;55.26
40918;BME280;26644;50.248;19.032;2023-02-10T07:26:13;99805.19;;;-2.03;55.38
40918;BME280;26644;50.248;19.032;2023-02-10T07:29:22;99806.19;;;-2.04;55.10
40918;BME280;26644;50.248;19.032;2023-02-10T07:32:27;99812.81;;;-1.98;55.03
40918;BME280;26644;50.248;19.032;2023-02-10T07:35:33;99823.75;;;-1.92;54.77
40918;BME280;26644;50.248;19.032;2023-02-10T07:38:38;99831.84;;;-1.83;54.65
40918;BME280;26644;50.248;19.032;2023-02-10T07:41:44;99821.28;;;-1.60;54.23
40918;BME280;26644;50.248;19.032;2023-02-10T07:44:51;99812.22;;;-1.26;53.29
40918;BME280;26644;50.248;19.032;2023-02-10T07:47:57;99818.72;;;-0.79;52.23
40918;BME280;26644;50.248;19.032;2023-02-10T07:51:03;99818.47;;;-0.45;51.42
40918;BME280;26644;50.248;19.032;2023-02-10T07:54:09;99826.25;;;-0.02;50.71
40918;BME280;26644;50.248;19.032;2023-02-10T07:57:15;99832.94;;;0.34;49.64
40918;BME280;26644;50.248;19.032;2023-02-10T08:00:23;99834.84;;;0.56;48.60
40918;BME280;26644;50.248;19.032;2023-02-10T08:03:28;99839.22;;;0.81;48.26
40918;BME280;26644;50.248;19.032;2023-02-10T08:06:34;99835.88;;;1.17;47.23
40918;BME280;26644;50.248;19.032;2023-02-10T08:09:39;99837.31;;;1.57;46.35
40918;BME280;26644;50.248;19.032;2023-02-10T08:12:45;99835.44;;;1.73;45.77
40918;BME280;26644;50.248;19.032;2023-02-10T08:15:53;99834.25;;;1.90;44.89
40918;BME280;26644;50.248;19.032;2023-02-10T08:18:58;99847.47;;;2.52;44.29
40918;BME280;26644;50.248;19.032;2023-02-10T08:22:04;99855.84;;;3.00;43.29
40918;BME280;26644;50.248;19.032;2023-02-10T08:25:10;99864.75;;;3.44;42.28
40918;BME280;26644;50.248;19.032;2023-02-10T08:28:15;99865.00;;;3.77;41.43
40918;BME280;26644;50.248;19.032;2023-02-10T08:31:24;99862.88;;;3.73;41.50
40918;BME280;26644;50.248;19.032;2023-02-10T08:34:29;99862.00;;;4.01;40.93
40918;BME280;26644;50.248;19.032;2023-02-10T08:37:35;99883.69;;;4.29;40.43
40918;BME280;26644;50.248;19.032;2023-02-10T08:40:40;99880.00;;;4.57;39.73
40918;BME280;26644;50.248;19.032;2023-02-10T08:43:46;99881.81;;;4.98;39.07
40918;BME280;26644;50.248;19.032;2023-02-10T08:46:54;99875.56;;;5.31;38.95
40918;BME280;26644;50.248;19.032;2023-02-10T08:50:00;99879.69;;;5.74;38.29
40918;BME280;26644;50.248;19.032;2023-02-10T08:53:05;99880.69;;;6.00;37.85
40918;BME280;26644;50.248;19.032;2023-02-10T08:56:15;99890.97;;;5.98;37.44
40918;BME280;26644;50.248;19.032;2023-02-10T08:59:22;99887.56;;;6.16;37.12
40918;BME280;26644;50.248;19.032;2023-02-10T09:02:30;99882.03;;;6.36;37.34
40918;BME280;26644;50.248;19.032;2023-02-10T09:05:35;99897.66;;;6.60;36.55
40918;BME280;26644;50.248;19.032;2023-02-10T09:08:42;99890.22;;;6.81;36.04
40918;BME280;26644;50.248;19.032;2023-02-10T09:11:48;99888.16;;;7.08;36.03
40918;BME280;26644;50.248;19.032;2023-02-10T09:14:55;99881.91;;;7.01;35.15
40918;BME280;26644;50.248;19.032;2023-02-10T09:18:03;99876.72;;;6.93;35.54
40918;BME280;26644;50.248;19.032;2023-02-10T09:21:10;99897.22;;;6.64;35.54
40918;BME280;26644;50.248;19.032;2023-02-10T09:24:15;99894.50;;;6.64;35.84
40918;BME280;26644;50.248;19.032;2023-02-10T09:27:21;99903.31;;;6.66;35.86
40918;BME280;26644;50.248;19.032;2023-02-10T09:30:27;99887.47;;;6.42;35.68
40918;BME280;26644;50.248;19.032;2023-02-10T09:33:36;99889.19;;;6.30;36.17
40918;BME280;26644;50.248;19.032;2023-02-10T09:36:41;99884.59;;;6.17;36.37
40918;BME280;26644;50.248;19.032;2023-02-10T09:39:47;99875.31;;;5.53;37.31
40918;BME280;26644;50.248;19.032;2023-02-10T09:43:05;99881.81;;;5.11;37.94
40918;BME280;26644;50.248;19.032;2023-02-10T09:46:35;99878.84;;;4.80;38.73
40918;BME280;26644;50.248;19.032;2023-02-10T09:50:07;99881.25;;;4.06;39.60
40918;BME280;26644;50.248;19.032;2023-02-10T09:53:36;99869.31;;;3.37;40.76
40918;BME280;26644;50.248;19.032;2023-02-10T09:56:43;99889.44;;;3.21;41.49
40918;BME280;26644;50.248;19.032;2023-02-10T09:59:52;99892.38;;;3.19;42.02
40918;BME280;26644;50.248;19.032;2023-02-10T10:03:04;99891.66;;;3.10;42.08
40918;BME280;26644;50.248;19.032;2023-02-10T10:06:23;99892.69;;;3.09;42.30
40918;BME280;26644;50.248;19.032;2023-02-10T10:09:40;99851.66;;;2.54;43.02
40918;BME280;26644;50.248;19.032;2023-02-10T10:12:48;99868.69;;;2.48;43.86
40918;BME280;26644;50.248;19.032;2023-02-10T10:16:16;99868.69;;;2.48;43.95
40918;BME280;26644;50.248;19.032;2023-02-10T10:19:50;99851.66;;;2.54;44.41
40918;BME280;26644;50.248;19.032;2023-02-10T10:23:30;99860.34;;;2.65;44.31
40918;BME280;26644;50.248;19.032;2023-02-10T10:26:56;99852.56;;;2.61;44.22
40918;BME280;26644;50.248;19.032;2023-02-10T10:30:17;99860.34;;;2.65;43.98
40918;BME280;26644;50.248;19.032;2023-02-10T10:33:33;99858.13;;;2.53;44.39
40918;BME280;26644;50.248;19.032;2023-02-10T10:36:45;99854.97;;;2.35;44.87
40918;BME280;26644;50.248;19.032;2023-02-10T10:39:59;99843.38;;;2.04;45.08
40918;BME280;26644;50.248;19.032;2023-02-10T10:43:17;99848.06;;;1.96;45.26
40918;BME280;26644;50.248;19.032;2023-02-10T10:46:30;99862.59;;;2.09;45.88
40918;BME280;26644;50.248;19.032;2023-02-10T10:49:42;99869.97;;;2.01;46.07
40918;BME280;26644;50.248;19.032;2023-02-10T10:52:50;99831.53;;;1.90;45.88
40918;BME280;26644;50.248;19.032;2023-02-10T10:56:03;99843.09;;;1.99;46.19
40918;BME280;26644;50.248;19.032;2023-02-10T10:59:14;99856.78;;;2.27;46.32
40918;BME280;26644;50.248;19.032;2023-02-10T11:02:22;99840.94;;;2.46;46.17
40918;BME280;26644;50.248;19.032;2023-02-10T11:05:32;99850.88;;;2.60;45.77
40918;BME280;26644;50.248;19.032;2023-02-10T11:08:43;99836.41;;;2.75;45.19
40918;BME280;26644;50.248;19.032;2023-02-10T11:12:00;99843.59;;;2.83;44.72
40918;BME280;26644;50.248;19.032;2023-02-10T11:15:31;99850.44;;;2.78;44.89
40918;BME280;26644;50.248;19.032;2023-02-10T11:18:52;99858.34;;;2.95;44.37
40918;BME280;26644;50.248;19.032;2023-02-10T11:21:58;99847.53;;;3.02;44.10
40918;BME280;26644;50.248;19.032;2023-02-10T11:25:27;99842.69;;;2.97;44.42
40918;BME280;26644;50.248;19.032;2023-02-10T11:28:37;99836.38;;;2.90;44.24
40918;BME280;26644;50.248;19.032;2023-02-10T11:31:45;99846.50;;;2.81;44.72
40918;BME280;26644;50.248;19.032;2023-02-10T11:34:52;99812.66;;;2.77;44.68
40918;BME280;26644;50.248;19.032;2023-02-10T11:38:04;99821.00;;;2.75;44.86
40918;BME280;26644;50.248;19.032;2023-02-10T11:41:12;99818.84;;;2.71;44.69
40918;BME280;26644;50.248;19.032;2023-02-10T11:44:27;99828.88;;;2.70;45.26
40918;BME280;26644;50.248;19.032;2023-02-10T11:47:34;99831.91;;;2.60;44.89
40918;BME280;26644;50.248;19.032;2023-02-10T11:50:39;99840.03;;;2.60;45.20
40918;BME280;26644;50.248;19.032;2023-02-10T11:53:46;99837.31;;;2.60;45.33
40918;BME280;26644;50.248;19.032;2023-02-10T11:57:04;99832.00;;;2.67;45.37
40918;BME280;26644;50.248;19.032;2023-02-10T12:00:46;99815.56;;;2.54;45.68
40918;BME280;26644;50.248;19.032;2023-02-10T12:04:14;99820.34;;;2.52;45.62
40918;BME280;26644;50.248;19.032;2023-02-10T12:07:43;99828.81;;;2.42;46.04
40918;BME280;26644;50.248;19.032;2023-02-10T12:11:05;99826.72;;;2.44;46.40
40918;BME280;26644;50.248;19.032;2023-02-10T12:14:36;99777.53;;;2.25;46.52
40918;BME280;26644;50.248;19.032;2023-02-10T12:18:10;99830.53;;;2.50;46.68
40918;BME280;26644;50.248;19.032;2023-02-10T12:21:47;99827.56;;;2.44;46.71
40918;BME280;26644;50.248;19.032;2023-02-10T12:25:16;99831.34;;;2.28;46.88
40918;BME280;26644;50.248;19.032;2023-02-10T12:28:37;99825.09;;;2.28;47.15
40918;BME280;26644;50.248;19.032;2023-02-10T12:32:02;99833.78;;;2.38;47.23
40918;BME280;26644;50.248;19.032;2023-02-10T12:35:30;99819.28;;;2.31;47.61
40918;BME280;26644;50.248;19.032;2023-02-10T12:38:56;99805.22;;;2.21;47.83
40918;BME280;26644;50.248;19.032;2023-02-10T12:42:30;99823.06;;;2.15;48.30
40918;BME280;26644;50.248;19.032;2023-02-10T12:45:54;99828.72;;;2.35;48.01
40918;BME280;26644;50.248;19.032;2023-02-10T12:49:18;99833.56;;;2.40;47.81
40918;BME280;26644;50.248;19.032;2023-02-10T12:52:44;99841.84;;;2.53;47.67
40918;BME280;26644;50.248;19.032;2023-02-10T12:56:01;99860.91;;;2.60;47.64
40918;BME280;26644;50.248;19.032;2023-02-10T12:59:17;99852.63;;;2.68;47.60
40918;BME280;26644;50.248;19.032;2023-02-10T13:02:32;99840.56;;;2.71;47.75
40918;BME280;26644;50.248;19.032;2023-02-10T13:05:50;99808.16;;;2.63;47.71
40918;BME280;26644;50.248;19.032;2023-02-10T13:09:13;99840.13;;;2.67;47.68
40918;BME280;26644;50.248;19.032;2023-02-10T13:12:28;99839.19;;;2.60;47.75
40918;BME280;26644;50.248;19.032;2023-02-10T13:15:41;99820.81;;;2.55;47.90
40918;BME280;26644;50.248;19.032;2023-02-10T13:18:55;99832.06;;;2.74;47.80
40918;BME280;26644;50.248;19.032;2023-02-10T13:22:16;99829.72;;;2.71;47.68
40918;BME280;26644;50.248;19.032;2023-02-10T13:25:41;99856.13;;;2.84;47.79
40918;BME280;26644;50.248;19.032;2023-02-10T13:29:08;99843.28;;;2.71;48.09
40918;BME280;26644;50.248;19.032;2023-02-10T13:32:37;99842.31;;;2.57;48.71
40918;BME280;26644;50.248;19.032;2023-02-10T13:35:54;99842.44;;;2.49;48.98
40918;BME280;26644;50.248;19.032;2023-02-10T13:39:04;99841.03;;;2.38;49.14
40918;BME280;26644;50.248;19.032;2023-02-10T13:42:29;99844.34;;;2.33;50.40
40918;BME280;26644;50.248;19.032;2023-02-10T13:45:38;99848.66;;;2.27;50.72
40918;BME280;26644;50.248;19.032;2023-02-10T13:48:44;99863.94;;;2.35;50.68
40918;BME280;26644;50.248;19.032;2023-02-10T13:51:59;99860.28;;;2.43;51.14
40918;BME280;26644;50.248;19.032;2023-02-10T13:55:26;99868.22;;;2.44;50.88
40918;BME280;26644;50.248;19.032;2023-02-10T13:58:54;99876.47;;;2.51;50.74
40918;BME280;26644;50.248;19.032;2023-02-10T14:02:15;99876.06;;;2.54;50.80
40918;BME280;26644;50.248;19.032;2023-02-10T14:05:30;99877.75;;;2.55;50.83
40918;BME280;26644;50.248;19.032;2023-02-10T14:08:40;99873.56;;;2.53;50.97
40918;BME280;26644;50.248;19.032;2023-02-10T14:11:51;99874.38;;;2.53;50.77
40918;BME280;26644;50.248;19.032;2023-02-10T14:15:17;99876.13;;;2.39;50.82
40918;BME280;26644;50.248;19.032;2023-02-10T14:18:27;99879.00;;;2.38;50.74
40918;BME280;26644;50.248;19.032;2023-02-10T14:21:38;99862.38;;;2.26;50.95
40918;BME280;26644;50.248;19.032;2023-02-10T14:24:46;99872.19;;;2.27;50.92
40918;BME280;26644;50.248;19.032;2023-02-10T14:27:55;99872.75;;;2.37;51.11
40918;BME280;26644;50.248;19.032;2023-02-10T14:31:11;99881.88;;;2.51;51.21
40918;BME280;26644;50.248;19.032;2023-02-10T14:34:23;99887.13;;;2.53;51.00
40918;BME280;26644;50.248;19.032;2023-02-10T14:37:31;99885.63;;;2.50;50.80
40918;BME280;26644;50.248;19.032;2023-02-10T14:40:37;99878.25;;;2.44;50.92
40918;BME280;26644;50.248;19.032;2023-02-10T14:43:43;99878.44;;;2.42;50.93
40918;BME280;26644;50.248;19.032;2023-02-10T14:46:53;99870.69;;;2.39;50.82
40918;BME280;26644;50.248;19.032;2023-02-10T14:50:00;99877.34;;;2.37;51.08
40918;BME280;26644;50.248;19.032;2023-02-10T14:53:05;99880.59;;;2.32;51.18
40918;BME280;26644;50.248;19.032;2023-02-10T14:56:18;99863.34;;;2.18;50.93
40918;BME280;26644;50.248;19.032;2023-02-10T14:59:28;99880.53;;;2.25;50.89
40918;BME280;26644;50.248;19.032;2023-02-10T15:02:38;99877.63;;;2.27;51.04
40918;BME280;26644;50.248;19.032;2023-02-10T15:05:46;99853.44;;;2.10;51.07
40918;BME280;26644;50.248;19.032;2023-02-10T15:08:59;99878.28;;;2.29;50.77
40918;BME280;26644;50.248;19.032;2023-02-10T15:12:12;99881.34;;;2.26;50.79
40918;BME280;26644;50.248;19.032;2023-02-10T15:15:27;99880.53;;;2.25;50.82
40918;BME280;26644;50.248;19.032;2023-02-10T15:18:41;99868.78;;;2.18;50.89
40918;BME280;26644;50.248;19.032;2023-02-10T15:21:51;99876.50;;;2.21;51.04
40918;BME280;26644;50.248;19.032;2023-02-10T15:24:56;99877.72;;;2.19;51.30
40918;BME280;26644;50.248;19.032;2023-02-10T15:28:21;99877.25;;;2.15;51.10
40918;BME280;26644;50.248;19.032;2023-02-10T15:31:31;99889.78;;;2.16;51.43
40918;BME280;26644;50.248;19.032;2023-02-10T15:34:40;99897.28;;;2.14;51.33
40918;BME280;26644;50.248;19.032;2023-02-10T15:37:48;99882.59;;;2.08;51.23
40918;BME280;26644;50.248;19.032;2023-02-10T15:40:57;99865.88;;;1.90;51.25
40918;BME280;26644;50.248;19.032;2023-02-10T15:44:04;99887.72;;;2.03;51.33
40918;BME280;26644;50.248;19.032;2023-02-10T15:47:44;99896.16;;;2.08;51.47
40918;BME280;26644;50.248;19.032;2023-02-10T15:50:57;99881.28;;;2.04;51.45
40918;BME280;26644;50.248;19.032;2023-02-10T15:54:03;99904.56;;;2.14;51.44
40918;BME280;26644;50.248;19.032;2023-02-10T15:57:11;99892.78;;;2.06;51.29
40918;BME280;26644;50.248;19.032;2023-02-10T16:00:21;99906.44;;;2.13;51.38
40918;BME280;26644;50.248;19.032;2023-02-10T16:03:28;99907.16;;;2.07;51.69
40918;BME280;26644;50.248;19.032;2023-02-10T16:06:38;99897.06;;;2.01;51.90
40918;BME280;26644;50.248;19.032;2023-02-10T16:09:43;99899.72;;;2.09;52.08
40918;BME280;26644;50.248;19.032;2023-02-10T16:12:49;99908.47;;;2.11;51.92
40918;BME280;26644;50.248;19.032;2023-02-10T16:15:56;99913.41;;;2.07;51.98
40918;BME280;26644;50.248;19.032;2023-02-10T16:19:02;99916.31;;;2.06;52.31
40918;BME280;26644;50.248;19.032;2023-02-10T16:22:20;99907.28;;;1.99;52.46
40918;BME280;26644;50.248;19.032;2023-02-10T16:25:27;99914.66;;;2.05;52.55
40918;BME280;26644;50.248;19.032;2023-02-10T16:28:33;99893.16;;;1.88;52.86
40918;BME280;26644;50.248;19.032;2023-02-10T16:31:39;99899.41;;;1.89;53.32
40918;BME280;26644;50.248;19.032;2023-02-10T16:34:44;99902.69;;;1.84;53.22
40918;BME280;26644;50.248;19.032;2023-02-10T16:37:53;99905.50;;;1.76;53.62
40918;BME280;26644;50.248;19.032;2023-02-10T16:40:58;99907.25;;;1.69;54.11
40918;BME280;26644;50.248;19.032;2023-02-10T16:44:04;99899.50;;;1.66;54.64
40918;BME280;26644;50.248;19.032;2023-02-10T16:47:15;99906.69;;;1.58;55.11
40918;BME280;26644;50.248;19.032;2023-02-10T16:50:30;99913.88;;;1.51;55.30
40918;BME280;26644;50.248;19.032;2023-02-10T16:53:39;99896.31;;;1.47;55.28